createdAt,value
2018-08-30T00:01:28.058Z,40.03
2018-08-30T00:03:56.345Z,28.67
2018-08-30T00:06:24.432Z,25.93
2018-08-30T00:08:52.526Z,24.77
2018-08-30T00:11:20.602Z,18.60
2018-08-30T00:13:48.690Z,19.90
2018-08-30T00:16:17.046Z,13.77
2018-08-30T00:18:45.122Z,12.43
2018-08-30T00:21:13.333Z,13.40
2018-08-30T00:23:41.425Z,9.23
2018-08-30T00:26:09.493Z,9.37
2018-08-30T00:28:37.566Z,8.73
2018-08-30T00:31:05.661Z,8.63
2018-08-30T00:33:33.738Z,7.70
2018-08-30T00:36:01.801Z,8.27
2018-08-30T00:38:29.873Z,8.03
2018-08-30T00:40:57.933Z,9.47
2018-08-30T00:43:26.013Z,8.40
2018-08-30T00:45:54.069Z,8.47
2018-08-30T00:48:22.141Z,9.90
2018-08-30T00:50:50.197Z,10.67
2018-08-30T00:53:18.287Z,11.20
2018-08-30T00:55:46.353Z,13.80
2018-08-30T00:58:18.146Z,14.30
2018-08-30T01:00:46.217Z,16.47
2018-08-30T01:03:14.301Z,18.23
2018-08-30T01:05:42.369Z,18.90
2018-08-30T01:08:10.442Z,18.47
2018-08-30T01:10:38.508Z,19.73
2018-08-30T01:13:06.641Z,21.97
2018-08-30T01:15:34.730Z,20.37
2018-08-30T01:18:02.756Z,22.40
2018-08-30T01:20:30.834Z,21.30
2018-08-30T01:22:58.905Z,22.40
2018-08-30T01:25:26.972Z,25.63
2018-08-30T01:27:55.049Z,27.80
2018-08-30T01:30:23.153Z,29.87
2018-08-30T01:32:51.260Z,28.63
2018-08-30T01:35:19.337Z,30.90
2018-08-30T01:37:47.409Z,32.33
2018-08-30T01:40:15.473Z,36.53
2018-08-30T01:42:43.553Z,37.20
2018-08-30T01:45:11.621Z,46.13
2018-08-30T01:47:39.706Z,44.60
2018-08-30T01:50:07.778Z,43.40
2018-08-30T01:52:35.861Z,46.20
2018-08-30T01:55:03.940Z,45.33
2018-08-30T01:57:32.030Z,58.10
2018-08-30T02:00:00.097Z,67.60
2018-08-30T02:02:28.180Z,63.37
2018-08-30T02:04:56.254Z,79.63
2018-08-30T02:07:24.326Z,82.30
2018-08-30T02:09:52.425Z,86.77
2018-08-30T02:12:20.493Z,77.67
2018-08-30T02:14:48.573Z,89.27
2018-08-30T02:17:16.637Z,78.90
2018-08-30T02:19:44.725Z,93.87
2018-08-30T02:22:12.793Z,91.37
2018-08-30T02:24:40.874Z,89.17
2018-08-30T02:27:08.950Z,85.93
2018-08-30T02:29:37.034Z,93.53
2018-08-30T02:32:05.098Z,94.50
2018-08-30T02:34:33.180Z,91.47
2018-08-30T02:37:01.253Z,88.50
2018-08-30T02:39:29.325Z,81.33
2018-08-30T02:41:57.398Z,81.93
2018-08-30T02:44:25.476Z,85.13
2018-08-30T02:46:53.553Z,92.17
2018-08-30T02:49:21.625Z,88.80
2018-08-30T02:51:49.697Z,83.10
2018-08-30T02:54:17.828Z,73.87
2018-08-30T02:56:45.921Z,84.53
2018-08-30T02:59:14.006Z,82.63
2018-08-30T03:01:42.089Z,75.43
2018-08-30T03:04:10.173Z,71.97
2018-08-30T03:06:38.241Z,69.57
2018-08-30T03:09:07.814Z,81.40
2018-08-30T03:11:35.885Z,71.57
2018-08-30T03:14:09.357Z,76.67
2018-08-30T03:16:37.429Z,84.20
2018-08-30T03:19:05.513Z,80.37
2018-08-30T03:21:33.585Z,80.37
2018-08-30T03:24:01.673Z,79.97
2018-08-30T03:26:29.746Z,80.53
2018-08-30T03:28:57.830Z,75.70
2018-08-30T03:31:25.970Z,83.70
2018-08-30T03:33:54.029Z,78.57
2018-08-30T03:36:22.146Z,79.77
2018-08-30T03:38:50.289Z,82.43
2018-08-30T03:41:18.366Z,75.50
2018-08-30T03:43:46.454Z,80.97
2018-08-30T03:46:14.525Z,80.97
2018-08-30T03:48:42.611Z,90.73
2018-08-30T03:51:10.681Z,83.67
2018-08-30T03:53:38.753Z,90.87
2018-08-30T03:56:06.838Z,82.30
2018-08-30T03:58:34.942Z,86.97
2018-08-30T04:01:03.013Z,93.17
2018-08-30T04:03:31.087Z,91.60
2018-08-30T04:05:59.175Z,84.67
2018-08-30T04:08:27.518Z,85.10
2018-08-30T04:10:55.604Z,84.87
2018-08-30T04:13:23.712Z,86.67
2018-08-30T04:15:51.750Z,85.60
2018-08-30T04:18:19.825Z,81.43
2018-08-30T04:20:47.905Z,83.97
2018-08-30T04:23:15.980Z,77.53
2018-08-30T04:25:44.073Z,80.40
2018-08-30T04:28:12.148Z,87.43
2018-08-30T04:30:40.237Z,87.60
2018-08-30T04:33:08.309Z,83.90
2018-08-30T04:35:36.405Z,98.77
2018-08-30T04:38:04.509Z,90.23
2018-08-30T04:40:32.598Z,89.30
2018-08-30T04:43:00.677Z,86.70
2018-08-30T04:45:28.762Z,86.20
2018-08-30T04:47:56.838Z,87.17
2018-08-30T04:50:25.091Z,81.03
2018-08-30T04:52:53.154Z,83.17
2018-08-30T04:55:21.238Z,82.60
2018-08-30T04:57:49.313Z,82.53
2018-08-30T05:00:17.398Z,80.63
2018-08-30T05:02:45.497Z,83.07
2018-08-30T05:05:13.630Z,81.33
2018-08-30T05:07:41.686Z,82.43
2018-08-30T05:10:09.898Z,85.17
2018-08-30T05:12:37.853Z,86.07
2018-08-30T05:15:06.261Z,85.23
2018-08-30T05:17:34.347Z,90.87
2018-08-30T05:20:02.434Z,82.20
2018-08-30T05:22:30.512Z,88.53
2018-08-30T05:24:58.597Z,87.27
2018-08-30T05:27:26.689Z,84.60
2018-08-30T05:29:54.877Z,99.03
2018-08-30T05:32:22.858Z,88.90
2018-08-30T05:34:50.948Z,94.30
2018-08-30T05:37:19.026Z,98.30
2018-08-30T05:39:47.198Z,95.40
2018-08-30T05:42:15.254Z,97.00
2018-08-30T05:44:43.403Z,102.30
2018-08-30T05:47:11.421Z,99.57
2018-08-30T05:49:39.509Z,102.27
2018-08-30T05:52:07.582Z,103.07
2018-08-30T05:54:35.661Z,98.40
2018-08-30T05:57:03.867Z,99.70
2018-08-30T05:59:31.830Z,102.27
2018-08-30T06:01:59.909Z,102.63
2018-08-30T06:04:27.982Z,102.33
2018-08-30T06:06:56.069Z,106.40
2018-08-30T06:09:24.151Z,106.10
2018-08-30T06:11:52.829Z,104.10
2018-08-30T06:14:20.914Z,108.93
2018-08-30T06:16:48.998Z,113.07
2018-08-30T06:19:17.101Z,100.37
2018-08-30T06:21:45.185Z,108.67
2018-08-30T06:24:13.273Z,99.60
2018-08-30T06:26:41.416Z,111.17
2018-08-30T06:29:09.465Z,105.83
2018-08-30T06:31:37.545Z,96.47
2018-08-30T06:34:05.626Z,101.63
2018-08-30T06:36:33.698Z,105.33
2018-08-30T06:39:01.777Z,102.40
2018-08-30T06:41:29.860Z,113.47
2018-08-30T06:43:57.941Z,110.13
2018-08-30T06:46:26.024Z,108.83
2018-08-30T06:48:54.125Z,112.17
2018-08-30T06:51:22.177Z,133.30
2018-08-30T06:53:50.281Z,107.83
2018-08-30T06:56:24.211Z,96.17
2018-08-30T06:58:52.278Z,99.03
2018-08-30T07:01:20.357Z,94.87
2018-08-30T07:03:48.433Z,101.30
2018-08-30T07:06:16.693Z,100.97
2018-08-30T07:08:44.749Z,97.83
2018-08-30T07:11:12.843Z,105.73
2018-08-30T07:13:40.921Z,93.63
2018-08-30T07:16:09.174Z,101.00
2018-08-30T07:18:37.471Z,87.40
2018-08-30T07:21:05.809Z,87.80
2018-08-30T07:23:33.893Z,80.53
2018-08-30T07:26:01.975Z,68.90
2018-08-30T07:28:30.086Z,76.60
2018-08-30T07:30:58.134Z,73.77
2018-08-30T07:33:26.201Z,66.83
2018-08-30T07:35:54.282Z,70.10
2018-08-30T07:38:22.378Z,56.17
2018-08-30T07:40:50.466Z,57.63
2018-08-30T07:43:18.545Z,54.63
2018-08-30T07:45:46.632Z,58.73
2018-08-30T07:48:14.732Z,57.23
2018-08-30T07:50:42.814Z,49.50
2018-08-30T07:53:10.895Z,50.07
2018-08-30T07:55:38.957Z,46.27
2018-08-30T07:58:07.049Z,45.37
2018-08-30T08:00:35.135Z,46.50
2018-08-30T08:03:03.209Z,42.90
2018-08-30T08:05:31.277Z,45.40
2018-08-30T08:07:59.363Z,38.23
2018-08-30T08:10:27.438Z,38.67
2018-08-30T08:12:55.517Z,39.03
2018-08-30T08:15:23.590Z,33.80
2018-08-30T08:17:51.830Z,29.93
2018-08-30T08:20:19.913Z,36.27
2018-08-30T08:22:47.992Z,31.50
2018-08-30T08:25:16.119Z,32.63
2018-08-30T08:27:44.183Z,35.20
2018-08-30T08:30:12.249Z,35.60
2018-08-30T08:32:40.347Z,42.83
2018-08-30T08:35:08.432Z,38.33
2018-08-30T08:37:36.509Z,37.90
2018-08-30T08:40:04.898Z,41.07
2018-08-30T08:42:32.976Z,40.67
2018-08-30T08:45:01.058Z,50.43
2018-08-30T08:47:29.142Z,38.53
2018-08-30T08:49:57.213Z,39.50
2018-08-30T08:52:25.307Z,36.80
2018-08-30T08:54:53.373Z,27.60
2018-08-30T08:57:21.505Z,22.57
2018-08-30T08:59:49.691Z,28.53
2018-08-30T09:02:17.769Z,23.37
2018-08-30T09:04:45.854Z,21.03
2018-08-30T09:07:13.988Z,23.40
2018-08-30T09:09:42.004Z,22.43
2018-08-30T09:12:10.076Z,20.67
2018-08-30T09:14:38.159Z,15.40
2018-08-30T09:17:06.246Z,17.93
2018-08-30T09:19:34.337Z,18.53
2018-08-30T09:22:02.421Z,23.50
2018-08-30T09:24:30.494Z,22.30
2018-08-30T09:26:58.917Z,20.43
2018-08-30T09:29:26.821Z,14.67
2018-08-30T09:31:54.920Z,14.80
2018-08-30T09:34:23.249Z,12.40
2018-08-30T09:36:51.321Z,12.40
2018-08-30T09:39:19.413Z,11.40
2018-08-30T09:41:47.525Z,12.57
2018-08-30T09:44:15.601Z,12.00
2018-08-30T09:46:43.665Z,12.80
2018-08-30T09:49:11.741Z,9.03
2018-08-30T09:51:39.813Z,11.40
2018-08-30T09:54:07.898Z,10.27
2018-08-30T09:56:35.991Z,12.10
2018-08-30T09:59:04.053Z,7.73
2018-08-30T10:01:37.665Z,10.13
2018-08-30T10:04:05.821Z,11.43
2018-08-30T10:06:33.896Z,7.27
2018-08-30T10:09:01.998Z,7.80
2018-08-30T10:11:30.072Z,6.23
2018-08-30T10:13:58.137Z,7.40
2018-08-30T10:16:26.209Z,12.83
2018-08-30T10:18:54.289Z,6.00
2018-08-30T10:21:22.410Z,11.53
2018-08-30T10:23:50.466Z,10.60
2018-08-30T10:26:18.534Z,10.33
2018-08-30T10:28:46.609Z,8.30
2018-08-30T10:31:14.677Z,10.87
2018-08-30T10:33:42.753Z,7.60
2018-08-30T10:36:10.825Z,8.07
2018-08-30T10:38:38.901Z,7.97
2018-08-30T10:41:07.086Z,7.43
2018-08-30T10:43:35.157Z,6.03
2018-08-30T10:46:03.225Z,7.30
2018-08-30T10:48:31.303Z,5.47
2018-08-30T10:50:59.388Z,6.40
2018-08-30T10:53:27.460Z,6.83
2018-08-30T10:55:55.557Z,7.37
2018-08-30T10:58:24.170Z,6.80
2018-08-30T11:00:52.150Z,7.63
2018-08-30T11:03:20.241Z,7.90
2018-08-30T11:05:48.312Z,8.57
2018-08-30T11:08:16.455Z,6.13
2018-08-30T11:10:44.526Z,6.77
2018-08-30T11:13:12.610Z,6.43
2018-08-30T11:15:40.673Z,8.43
2018-08-30T11:18:08.762Z,8.93
2018-08-30T11:20:36.877Z,7.07
2018-08-30T11:23:04.960Z,6.60
2018-08-30T11:25:33.051Z,9.90
2018-08-30T11:28:01.666Z,5.03
2018-08-30T11:30:29.729Z,6.20
2018-08-30T11:32:57.805Z,4.50
2018-08-30T11:35:25.869Z,7.30
2018-08-30T11:37:54.265Z,5.73
2018-08-30T11:40:22.450Z,6.07
2018-08-30T11:42:50.741Z,7.37
2018-08-30T11:45:18.811Z,6.23
2018-08-30T11:47:46.876Z,4.27
2018-08-30T11:50:14.949Z,9.60
2018-08-30T11:52:43.054Z,6.57
2018-08-30T11:55:11.098Z,5.90
2018-08-30T11:57:39.173Z,8.60
2018-08-30T12:00:07.269Z,3.47
2018-08-30T12:02:35.829Z,6.40
2018-08-30T12:05:04.454Z,9.40
2018-08-30T12:07:32.534Z,7.50
2018-08-30T12:10:00.661Z,4.20
2018-08-30T12:12:28.735Z,5.03
2018-08-30T12:14:56.809Z,4.17
2018-08-30T12:17:24.874Z,3.50
2018-08-30T12:19:52.972Z,3.20
2018-08-30T12:22:21.045Z,6.17
2018-08-30T12:24:49.118Z,4.07
2018-08-30T12:27:17.182Z,5.90
2018-08-30T12:29:45.272Z,5.10
2018-08-30T12:32:13.354Z,5.10
2018-08-30T12:34:41.450Z,5.73
2018-08-30T12:37:09.467Z,7.57
2018-08-30T12:39:37.588Z,8.23
2018-08-30T12:42:05.773Z,11.23
2018-08-30T12:44:33.873Z,4.87
2018-08-30T12:47:01.937Z,6.00
2018-08-30T12:49:30.008Z,3.80
2018-08-30T12:51:58.177Z,7.70
2018-08-30T12:54:26.205Z,5.17
2018-08-30T12:56:54.298Z,4.87
2018-08-30T12:59:27.999Z,4.47
2018-08-30T13:01:56.153Z,5.00
2018-08-30T13:04:24.225Z,7.53
2018-08-30T13:06:55.698Z,8.33
2018-08-30T13:09:24.980Z,10.30
2018-08-30T13:11:53.244Z,6.13
2018-08-30T13:14:21.218Z,5.23
2018-08-30T13:16:49.393Z,7.80
2018-08-30T13:19:17.404Z,5.93
2018-08-30T13:21:45.421Z,6.70
2018-08-30T13:24:13.470Z,7.43
2018-08-30T13:26:41.602Z,5.07
2018-08-30T13:29:09.563Z,6.77
2018-08-30T13:31:37.822Z,4.83
2018-08-30T13:34:06.140Z,4.97
2018-08-30T13:36:33.919Z,4.00
2018-08-30T13:39:02.259Z,6.40
2018-08-30T13:41:30.235Z,7.33
2018-08-30T13:43:58.424Z,5.63
2018-08-30T13:46:26.335Z,4.90
2018-08-30T13:48:54.638Z,3.33
2018-08-30T13:51:22.642Z,7.67
2018-08-30T13:56:53.843Z,7.30
2018-08-30T13:59:22.131Z,6.80
2018-08-30T14:01:50.207Z,4.90
2018-08-30T14:04:18.145Z,5.37
2018-08-30T14:06:46.277Z,7.93
2018-08-30T14:09:14.606Z,4.83
2018-08-30T14:11:42.995Z,7.20
2018-08-30T14:14:10.703Z,5.50
2018-08-30T14:16:38.621Z,5.47
2018-08-30T14:19:06.815Z,4.40
2018-08-30T14:21:34.857Z,2.90
2018-08-30T14:24:02.991Z,6.53
2018-08-30T14:26:31.158Z,6.50
2018-08-30T14:28:59.395Z,2.90
2018-08-30T14:31:27.489Z,5.20
2018-08-30T14:33:55.617Z,5.33
2018-08-30T14:36:23.790Z,8.30
2018-08-30T14:38:51.892Z,6.73
2018-08-30T14:41:20.274Z,3.90
2018-08-30T14:43:48.128Z,6.47
2018-08-30T14:46:16.261Z,4.70
2018-08-30T14:48:44.390Z,4.20
2018-08-30T14:51:12.529Z,3.90
2018-08-30T14:53:40.737Z,2.10
2018-08-30T14:56:08.811Z,3.50
2018-08-30T14:58:36.946Z,6.20
2018-08-30T15:01:05.082Z,3.37
2018-08-30T15:03:33.218Z,6.90
2018-08-30T15:06:01.456Z,5.33
2018-08-30T15:08:29.507Z,4.17
2018-08-30T15:10:57.733Z,3.80
2018-08-30T15:13:32.573Z,4.50
2018-08-30T15:16:00.705Z,6.40
2018-08-30T15:18:28.884Z,7.17
2018-08-30T15:20:57.018Z,3.60
2018-08-30T15:23:25.157Z,3.97
2018-08-30T15:25:53.243Z,10.13
2018-08-30T15:28:21.377Z,7.90
2018-08-30T15:30:49.703Z,4.90
2018-08-30T15:33:17.787Z,5.33
2018-08-30T15:35:45.926Z,5.50
2018-08-30T15:38:14.065Z,2.80
2018-08-30T15:40:42.197Z,3.43
2018-08-30T15:43:10.324Z,5.80
2018-08-30T15:45:38.462Z,5.13
2018-08-30T15:48:06.653Z,5.17
2018-08-30T15:50:34.727Z,3.63
2018-08-30T15:53:02.860Z,5.63
2018-08-30T15:55:30.990Z,4.50
2018-08-30T15:57:59.125Z,11.23
2018-08-30T16:00:27.265Z,10.27
2018-08-30T16:02:55.389Z,4.30
2018-08-30T16:05:23.667Z,4.90
2018-08-30T16:07:51.730Z,4.87
2018-08-30T16:10:19.862Z,7.57
2018-08-30T16:12:48.014Z,7.53
2018-08-30T16:15:16.149Z,6.40
2018-08-30T16:17:44.277Z,4.90
2018-08-30T16:20:12.597Z,5.40
2018-08-30T16:22:48.273Z,3.60
2018-08-30T16:25:16.782Z,4.13
2018-08-30T16:27:44.926Z,6.67
2018-08-30T16:30:13.056Z,6.37
2018-08-30T16:32:41.191Z,6.77
2018-08-30T16:35:09.370Z,7.67
2018-08-30T16:37:37.881Z,11.17
2018-08-30T16:40:06.021Z,6.77
2018-08-30T16:42:34.150Z,6.50
2018-08-30T16:45:02.284Z,4.80
2018-08-30T16:47:30.409Z,5.87
2018-08-30T16:49:58.538Z,4.23
2018-08-30T16:52:26.670Z,6.37
2018-08-30T16:54:54.798Z,4.40
2018-08-30T16:57:22.961Z,4.03
2018-08-30T16:59:51.097Z,3.10
2018-08-30T17:02:19.397Z,4.90
2018-08-30T17:04:47.416Z,4.33
2018-08-30T17:07:15.605Z,3.63
2018-08-30T17:09:43.742Z,4.23
2018-08-30T17:12:11.890Z,5.70
2018-08-30T17:14:40.030Z,3.50
2018-08-30T17:17:08.216Z,6.30
2018-08-30T17:19:36.392Z,5.60
2018-08-30T17:22:04.530Z,3.40
2018-08-30T17:24:32.657Z,10.30
2018-08-30T17:27:00.791Z,3.70
2018-08-30T17:29:28.958Z,5.80
2018-08-30T17:31:57.094Z,4.73
2018-08-30T17:34:26.277Z,6.00
2018-08-30T17:36:54.464Z,7.93
2018-08-30T17:39:22.571Z,5.40
2018-08-30T17:41:50.715Z,5.03
2018-08-30T17:44:18.851Z,3.50
2018-08-30T17:46:48.186Z,6.57
2018-08-30T17:49:17.354Z,5.60
2018-08-30T17:51:45.511Z,4.93
2018-08-30T17:54:13.637Z,4.70
2018-08-30T17:56:41.826Z,5.83
2018-08-30T17:59:09.930Z,6.93
2018-08-30T18:01:38.070Z,6.83
2018-08-30T18:04:06.202Z,6.60
2018-08-30T18:06:34.324Z,4.90
2018-08-30T18:09:02.537Z,5.90
2018-08-30T18:11:30.722Z,5.40
2018-08-30T18:13:58.897Z,5.40
2018-08-30T18:19:01.954Z,5.43
2018-08-30T18:21:30.062Z,4.33
2018-08-30T18:23:58.430Z,7.13
2018-08-30T18:26:26.777Z,5.20
2018-08-30T18:28:55.189Z,8.47
2018-08-30T18:31:23.343Z,7.60
2018-08-30T18:33:51.462Z,3.13
2018-08-30T18:36:19.573Z,7.27
2018-08-30T18:38:47.677Z,4.37
2018-08-30T18:41:15.875Z,6.87
2018-08-30T18:43:43.977Z,5.03
2018-08-30T18:46:12.221Z,7.23
2018-08-30T18:48:40.337Z,5.43
2018-08-30T18:51:08.480Z,7.23
2018-08-30T18:53:36.649Z,5.10
2018-08-30T18:56:04.846Z,4.13
2018-08-30T18:58:32.993Z,5.70
2018-08-30T19:01:01.164Z,5.30
2018-08-30T19:03:29.361Z,4.80
2018-08-30T19:05:57.805Z,6.17
2018-08-30T19:08:25.968Z,5.27
2018-08-30T19:10:54.126Z,4.93
2018-08-30T19:13:22.346Z,6.40
2018-08-30T19:15:55.900Z,5.03
2018-08-30T19:18:29.550Z,8.53
2018-08-30T19:20:58.108Z,7.03
2018-08-30T19:23:26.246Z,8.70
2018-08-30T19:25:54.481Z,4.80
2018-08-30T19:28:22.642Z,6.30
2018-08-30T19:30:50.759Z,5.40
2018-08-30T19:33:18.906Z,3.20
2018-08-30T19:35:52.586Z,4.53
2018-08-30T19:38:20.777Z,7.63
2018-08-30T19:40:54.526Z,5.90
2018-08-30T19:43:22.687Z,4.43
2018-08-30T19:45:50.817Z,5.60
2018-08-30T19:48:18.957Z,5.37
2018-08-30T19:50:47.102Z,6.70
2018-08-30T19:53:15.266Z,5.47
2018-08-30T19:55:43.517Z,5.63
2018-08-30T19:58:11.705Z,4.20
2018-08-30T20:00:39.794Z,6.30
2018-08-30T20:03:07.918Z,5.47
2018-08-30T20:05:36.018Z,5.60
2018-08-30T20:08:04.367Z,4.83
2018-08-30T20:10:32.582Z,9.13
2018-08-30T20:13:00.710Z,6.43
2018-08-30T20:15:28.829Z,3.20
2018-08-30T20:17:56.970Z,7.10
2018-08-30T20:20:25.124Z,7.80
2018-08-30T20:22:53.266Z,5.97
2018-08-30T20:25:21.377Z,9.10
2018-08-30T20:27:49.492Z,8.20
2018-08-30T20:30:17.607Z,7.10
2018-08-30T20:32:45.714Z,6.87
2018-08-30T20:35:13.850Z,7.97
2018-08-30T20:37:41.969Z,7.87
2018-08-30T20:40:10.105Z,8.60
2018-08-30T20:42:38.453Z,8.13
2018-08-30T20:45:06.900Z,6.60
2018-08-30T20:47:35.176Z,10.03
2018-08-30T20:50:03.339Z,6.30
2018-08-30T20:52:31.546Z,5.07
2018-08-30T20:54:59.666Z,5.83
2018-08-30T20:57:27.830Z,7.13
2018-08-30T20:59:56.241Z,6.23
2018-08-30T21:02:24.397Z,6.20
2018-08-30T21:04:52.713Z,8.93
2018-08-30T21:07:20.858Z,7.10
2018-08-30T21:09:49.045Z,7.93
2018-08-30T21:12:17.157Z,6.73
2018-08-30T21:14:45.298Z,7.87
2018-08-30T21:17:13.444Z,5.80
2018-08-30T21:19:41.594Z,6.03
2018-08-30T21:22:09.766Z,12.37
2018-08-30T21:24:37.909Z,4.60
2018-08-30T21:27:12.864Z,6.73
2018-08-30T21:29:41.137Z,6.70
2018-08-30T21:32:09.277Z,7.03
2018-08-30T21:34:37.717Z,3.40
2018-08-30T21:37:05.874Z,7.50
2018-08-30T21:39:34.198Z,9.97
2018-08-30T21:42:02.375Z,6.23
2018-08-30T21:44:30.499Z,8.30
2018-08-30T21:46:58.629Z,7.70
2018-08-30T21:49:26.793Z,7.10
2018-08-30T21:51:54.945Z,4.50
2018-08-30T21:54:23.086Z,8.43
2018-08-30T21:56:51.207Z,4.73
2018-08-30T21:59:19.317Z,5.87
2018-08-30T22:01:47.433Z,4.83
2018-08-30T22:04:15.542Z,8.03
2018-08-30T22:06:43.665Z,9.00
2018-08-30T22:09:12.802Z,8.10
2018-08-30T22:11:41.478Z,9.03
2018-08-30T22:14:09.937Z,4.70
2018-08-30T22:16:38.152Z,6.03
2018-08-30T22:19:06.266Z,4.37
2018-08-30T22:21:34.373Z,9.73
2018-08-30T22:24:02.484Z,9.10
2018-08-30T22:26:30.607Z,7.57
2018-08-30T22:28:58.750Z,5.00
2018-08-30T22:31:26.865Z,6.80
2018-08-30T22:33:54.973Z,5.30
2018-08-30T22:36:23.096Z,4.60
2018-08-30T22:38:51.231Z,4.90
2018-08-30T22:41:19.342Z,5.67
2018-08-30T22:43:47.445Z,7.23
2018-08-30T22:46:15.561Z,6.33
2018-08-30T22:48:43.682Z,11.70
2018-08-30T22:51:11.798Z,4.37
2018-08-30T22:53:39.929Z,3.30
2018-08-30T22:56:08.051Z,9.13
2018-08-30T22:58:36.170Z,6.90
2018-08-30T23:01:04.277Z,4.40
2018-08-30T23:03:32.389Z,8.10
2018-08-30T23:06:00.521Z,7.90
2018-08-30T23:08:28.625Z,9.80
2018-08-30T23:10:56.752Z,8.40
2018-08-30T23:13:24.870Z,6.80
2018-08-30T23:15:52.981Z,5.70
2018-08-30T23:18:21.090Z,5.77
2018-08-30T23:20:49.207Z,6.90
2018-08-30T23:23:17.313Z,7.53
2018-08-30T23:25:45.448Z,4.50
2018-08-30T23:28:13.549Z,6.60
2018-08-30T23:30:41.661Z,6.70
2018-08-30T23:33:09.781Z,9.57
2018-08-30T23:35:37.908Z,5.37
2018-08-30T23:38:06.509Z,8.17
2018-08-30T23:40:34.633Z,7.50
2018-08-30T23:43:02.787Z,5.80
2018-08-30T23:45:30.905Z,10.17
2018-08-30T23:47:59.001Z,8.97
2018-08-30T23:50:27.126Z,8.77
2018-08-30T23:52:55.246Z,12.67
2018-08-30T23:55:23.361Z,8.83
2018-08-30T23:58:02.801Z,8.03
